createdAt,value
2018-03-27T00:00:36.136Z,5.57
2018-03-27T00:03:04.147Z,5.40
2018-03-27T00:05:31.720Z,5.57
2018-03-27T00:07:59.205Z,5.17
2018-03-27T00:10:27.665Z,6.10
2018-03-27T00:12:55.165Z,4.90
2018-03-27T00:15:22.781Z,5.33
2018-03-27T00:17:50.353Z,6.83
2018-03-27T00:20:17.913Z,6.00
2018-03-27T00:22:45.441Z,5.43
2018-03-27T00:25:12.961Z,5.43
2018-03-27T00:27:52.352Z,6.23
2018-03-27T00:30:32.147Z,6.30
2018-03-27T00:33:11.713Z,6.13
2018-03-27T00:35:51.059Z,4.53
2018-03-27T00:38:30.823Z,6.43
2018-03-27T00:40:57.896Z,5.87
2018-03-27T00:43:25.415Z,5.40
2018-03-27T00:45:53.278Z,5.30
2018-03-27T00:48:20.780Z,5.40
2018-03-27T00:50:48.284Z,6.60
2018-03-27T00:53:15.804Z,6.00
2018-03-27T00:55:43.356Z,5.53
2018-03-27T00:58:11.229Z,6.53
2018-03-27T01:00:38.766Z,7.20
2018-03-27T01:03:06.302Z,6.30
2018-03-27T01:05:33.866Z,6.13
2018-03-27T01:08:01.423Z,6.10
2018-03-27T01:10:28.940Z,6.73
2018-03-27T01:12:56.949Z,6.60
2018-03-27T01:15:24.541Z,6.37
2018-03-27T01:17:52.058Z,6.20
2018-03-27T01:20:19.572Z,5.80
2018-03-27T01:22:47.083Z,6.60
2018-03-27T01:25:14.598Z,5.50
2018-03-27T01:27:42.351Z,6.20
2018-03-27T01:30:09.839Z,5.73
2018-03-27T01:32:37.430Z,6.20
2018-03-27T01:35:05.321Z,6.07
2018-03-27T01:37:32.800Z,6.47
2018-03-27T01:40:00.308Z,6.20
2018-03-27T01:42:27.852Z,5.10
2018-03-27T01:44:55.333Z,6.67
2018-03-27T01:47:22.804Z,5.63
2018-03-27T01:49:50.675Z,5.70
2018-03-27T01:52:18.564Z,7.77
2018-03-27T01:54:46.407Z,5.87
2018-03-27T01:57:14.318Z,6.87
2018-03-27T01:59:41.778Z,5.80
2018-03-27T02:02:09.249Z,6.40
2018-03-27T02:04:36.736Z,6.07
2018-03-27T02:07:04.213Z,6.03
2018-03-27T02:09:31.666Z,5.80
2018-03-27T02:12:04.829Z,6.67
2018-03-27T02:14:38.070Z,6.70
2018-03-27T02:17:11.282Z,6.13
2018-03-27T02:19:44.954Z,6.17
2018-03-27T02:22:12.472Z,6.10
2018-03-27T02:24:40.910Z,8.07
2018-03-27T02:27:08.391Z,6.53
2018-03-27T02:29:35.938Z,7.50
2018-03-27T02:32:03.924Z,7.10
2018-03-27T02:34:31.802Z,6.40
2018-03-27T02:36:59.716Z,6.90
2018-03-27T02:39:27.158Z,6.67
2018-03-27T02:41:54.653Z,6.00
2018-03-27T02:44:22.123Z,6.97
2018-03-27T02:46:49.753Z,7.50
2018-03-27T02:49:17.243Z,6.83
2018-03-27T02:51:44.740Z,5.90
2018-03-27T02:54:12.646Z,6.60
2018-03-27T02:56:40.128Z,7.77
2018-03-27T02:59:07.635Z,6.40
2018-03-27T03:01:35.528Z,7.83
2018-03-27T03:04:02.993Z,6.77
2018-03-27T03:06:30.902Z,6.67
2018-03-27T03:08:58.945Z,8.43
2018-03-27T03:11:26.466Z,6.13
2018-03-27T03:13:53.978Z,6.93
2018-03-27T03:16:21.495Z,6.97
2018-03-27T03:18:48.969Z,6.93
2018-03-27T03:21:16.906Z,7.33
2018-03-27T03:23:44.369Z,7.30
2018-03-27T03:26:11.870Z,6.90
2018-03-27T03:28:39.784Z,7.40
2018-03-27T03:31:07.293Z,7.00
2018-03-27T03:33:34.767Z,6.80
2018-03-27T03:36:02.766Z,7.00
2018-03-27T03:38:30.296Z,6.10
2018-03-27T03:40:58.178Z,7.00
2018-03-27T03:43:26.137Z,7.97
2018-03-27T03:45:54.845Z,7.10
2018-03-27T03:48:22.704Z,7.53
2018-03-27T03:50:50.616Z,7.47
2018-03-27T03:53:18.125Z,8.20
2018-03-27T03:55:45.690Z,7.07
2018-03-27T03:58:13.183Z,7.63
2018-03-27T04:00:41.150Z,8.13
2018-03-27T04:03:09.010Z,7.80
2018-03-27T04:05:36.984Z,7.97
2018-03-27T04:08:04.534Z,7.87
2018-03-27T04:10:32.005Z,9.40
2018-03-27T04:12:59.584Z,7.40
2018-03-27T04:15:27.535Z,7.90
2018-03-27T04:17:55.403Z,7.20
2018-03-27T04:20:22.878Z,7.23
2018-03-27T04:22:50.380Z,7.33
2018-03-27T04:25:17.884Z,8.63
2018-03-27T04:27:45.445Z,8.40
2018-03-27T04:30:12.933Z,8.23
2018-03-27T04:32:41.462Z,8.37
2018-03-27T04:35:08.983Z,7.87
2018-03-27T04:37:36.898Z,8.40
2018-03-27T04:40:04.377Z,7.97
2018-03-27T04:42:31.840Z,9.53
2018-03-27T04:44:59.355Z,10.23
2018-03-27T04:47:27.321Z,8.90
2018-03-27T04:49:55.201Z,8.00
2018-03-27T04:52:23.087Z,8.93
2018-03-27T04:54:50.567Z,7.90
2018-03-27T04:57:18.066Z,8.83
2018-03-27T04:59:45.584Z,8.80
2018-03-27T05:02:13.139Z,8.40
2018-03-27T05:04:40.654Z,8.90
2018-03-27T05:07:08.126Z,8.40
2018-03-27T05:09:36.469Z,8.30
2018-03-27T05:12:03.997Z,8.47
2018-03-27T05:14:31.514Z,8.13
2018-03-27T05:16:58.978Z,8.23
2018-03-27T05:19:26.558Z,10.03
2018-03-27T05:21:54.156Z,10.40
2018-03-27T05:24:21.657Z,7.87
2018-03-27T05:26:49.113Z,9.87
2018-03-27T05:29:16.619Z,9.43
2018-03-27T05:31:44.487Z,8.80
2018-03-27T05:34:11.958Z,9.43
2018-03-27T05:36:39.931Z,10.03
2018-03-27T05:39:07.815Z,9.60
2018-03-27T05:41:35.318Z,9.03
2018-03-27T05:44:02.770Z,9.77
2018-03-27T05:46:30.257Z,9.20
2018-03-27T05:48:57.736Z,9.70
2018-03-27T05:51:25.258Z,9.73
2018-03-27T05:53:52.766Z,9.70
2018-03-27T05:56:20.246Z,10.10
2018-03-27T05:58:48.201Z,8.97
2018-03-27T06:01:15.769Z,9.87
2018-03-27T06:03:43.703Z,9.50
2018-03-27T06:06:11.197Z,9.57
2018-03-27T06:08:38.683Z,10.47
2018-03-27T06:11:06.256Z,9.47
2018-03-27T06:13:33.797Z,10.23
2018-03-27T06:16:01.685Z,9.03
2018-03-27T06:18:29.186Z,10.70
2018-03-27T06:20:56.660Z,10.07
2018-03-27T06:23:24.156Z,9.83
2018-03-27T06:25:51.631Z,10.03
2018-03-27T06:28:19.487Z,8.73
2018-03-27T06:30:47.383Z,11.47
2018-03-27T06:33:14.913Z,9.83
2018-03-27T06:35:42.911Z,9.63
2018-03-27T06:38:11.140Z,9.77
2018-03-27T06:40:38.635Z,10.50
2018-03-27T06:43:06.186Z,9.60
2018-03-27T06:45:33.768Z,9.90
2018-03-27T06:48:01.645Z,12.53
2018-03-27T06:50:29.541Z,10.50
2018-03-27T06:52:57.028Z,12.37
2018-03-27T06:55:24.527Z,11.00
2018-03-27T06:57:52.107Z,11.83
2018-03-27T07:00:19.966Z,10.40
2018-03-27T07:02:47.434Z,11.77
2018-03-27T07:05:15.354Z,11.10
2018-03-27T07:07:43.202Z,12.23
2018-03-27T07:10:10.701Z,11.40
2018-03-27T07:12:38.267Z,11.37
2018-03-27T07:15:05.661Z,11.43
2018-03-27T07:17:33.536Z,11.17
2018-03-27T07:20:01.626Z,11.70
2018-03-27T07:22:29.086Z,11.90
2018-03-27T07:24:56.978Z,10.80
2018-03-27T07:27:24.593Z,11.00
2018-03-27T07:29:52.098Z,18.33
2018-03-27T07:32:19.587Z,12.60
2018-03-27T07:34:47.099Z,13.03
2018-03-27T07:37:14.654Z,10.17
2018-03-27T07:39:42.155Z,11.27
2018-03-27T07:42:09.680Z,13.60
2018-03-27T07:44:37.259Z,11.40
2018-03-27T07:47:05.240Z,11.80
2018-03-27T07:49:33.211Z,11.57
2018-03-27T07:52:00.663Z,11.13
2018-03-27T07:54:28.635Z,12.07
2018-03-27T07:56:56.528Z,11.83
2018-03-27T07:59:24.050Z,12.50
2018-03-27T08:01:51.539Z,12.27
2018-03-27T08:04:20.083Z,11.10
2018-03-27T08:06:47.546Z,11.43
2018-03-27T08:09:15.028Z,11.07
2018-03-27T08:11:42.965Z,10.10
2018-03-27T08:14:10.468Z,11.30
2018-03-27T08:16:37.981Z,10.63
2018-03-27T08:19:05.488Z,11.10
2018-03-27T08:21:32.977Z,11.77
2018-03-27T08:24:01.020Z,9.97
2018-03-27T08:26:28.381Z,11.70
2018-03-27T08:28:55.911Z,11.63
2018-03-27T08:31:23.410Z,11.47
2018-03-27T08:33:50.906Z,10.80
2018-03-27T08:36:18.886Z,10.80
2018-03-27T08:38:46.329Z,10.60
2018-03-27T08:41:14.259Z,11.20
2018-03-27T08:43:41.763Z,12.90
2018-03-27T08:46:09.722Z,11.60
2018-03-27T08:48:37.312Z,11.90
2018-03-27T08:51:05.170Z,10.93
2018-03-27T08:53:33.102Z,15.13
2018-03-27T08:56:00.590Z,12.10
2018-03-27T08:58:28.176Z,12.10
2018-03-27T09:00:55.699Z,12.43
2018-03-27T09:03:23.259Z,12.60
2018-03-27T09:05:50.895Z,12.10
2018-03-27T09:08:18.432Z,12.23
2018-03-27T09:10:46.362Z,11.30
2018-03-27T09:13:13.920Z,12.80
2018-03-27T09:15:41.414Z,12.43
2018-03-27T09:18:08.950Z,11.97
2018-03-27T09:20:36.455Z,10.73
2018-03-27T09:23:04.374Z,12.30
2018-03-27T09:25:31.941Z,10.63
2018-03-27T09:27:59.468Z,10.33
2018-03-27T09:30:27.425Z,10.40
2018-03-27T09:32:54.903Z,9.07
2018-03-27T09:35:22.426Z,9.10
2018-03-27T09:37:49.954Z,10.73
2018-03-27T09:40:18.190Z,10.70
2018-03-27T09:42:45.640Z,10.70
2018-03-27T09:45:13.161Z,9.80
2018-03-27T09:47:40.668Z,10.17
2018-03-27T09:50:08.185Z,12.80
2018-03-27T09:52:35.741Z,11.80
2018-03-27T09:55:03.269Z,12.07
2018-03-27T09:57:31.994Z,11.17
2018-03-27T09:59:59.587Z,13.03
2018-03-27T10:02:27.330Z,12.70
2018-03-27T10:04:54.852Z,11.70
2018-03-27T10:07:22.464Z,14.13
2018-03-27T10:09:49.996Z,14.03
2018-03-27T10:12:17.988Z,12.17
2018-03-27T10:14:45.534Z,12.57
2018-03-27T10:17:13.489Z,13.33
2018-03-27T10:19:40.994Z,15.00
2018-03-27T10:22:08.687Z,14.60
2018-03-27T10:24:36.170Z,14.57
2018-03-27T10:27:03.758Z,16.30
2018-03-27T10:29:31.754Z,15.30
2018-03-27T10:31:59.291Z,14.50
2018-03-27T10:34:27.186Z,16.60
2018-03-27T10:36:54.742Z,18.90
2018-03-27T10:39:22.685Z,16.90
2018-03-27T10:41:50.212Z,14.73
2018-03-27T10:44:17.777Z,16.83
2018-03-27T10:46:45.370Z,16.30
2018-03-27T10:49:12.863Z,18.70
2018-03-27T10:51:40.782Z,16.07
2018-03-27T10:54:08.965Z,17.53
2018-03-27T10:56:36.576Z,17.50
2018-03-27T10:59:04.081Z,17.17
2018-03-27T11:01:31.620Z,18.30
2018-03-27T11:03:59.203Z,18.10
2018-03-27T11:06:27.127Z,18.93
2018-03-27T11:08:54.645Z,18.50
2018-03-27T11:11:22.169Z,18.67
2018-03-27T11:13:50.072Z,18.97
2018-03-27T11:16:17.593Z,18.30
2018-03-27T11:18:45.527Z,20.50
2018-03-27T11:21:13.139Z,17.90
2018-03-27T11:23:41.057Z,18.33
2018-03-27T11:26:08.601Z,19.10
2018-03-27T11:28:36.185Z,18.27
2018-03-27T11:31:05.072Z,16.03
2018-03-27T11:33:32.580Z,17.50
2018-03-27T11:36:00.113Z,19.13
2018-03-27T11:38:27.627Z,17.90
2018-03-27T11:40:55.533Z,18.80
2018-03-27T11:43:23.123Z,17.23
2018-03-27T11:45:50.777Z,18.30
2018-03-27T11:48:18.384Z,18.93
2018-03-27T11:50:45.926Z,16.30
2018-03-27T11:53:13.500Z,17.20
2018-03-27T11:55:41.037Z,16.17
2018-03-27T11:58:08.585Z,14.83
2018-03-27T12:00:36.112Z,16.20
2018-03-27T12:03:04.313Z,15.23
2018-03-27T12:05:31.832Z,17.20
2018-03-27T12:07:59.335Z,16.97
2018-03-27T12:10:26.926Z,18.00
2018-03-27T12:12:54.460Z,20.03
2018-03-27T12:15:21.975Z,19.10
2018-03-27T12:17:49.464Z,21.10
2018-03-27T12:20:16.948Z,19.47
2018-03-27T12:22:44.832Z,18.50
2018-03-27T12:25:12.552Z,21.00
2018-03-27T12:27:40.049Z,20.77
2018-03-27T12:30:07.555Z,20.50
2018-03-27T12:32:35.033Z,18.70
2018-03-27T12:35:03.556Z,16.60
2018-03-27T12:37:31.496Z,18.57
2018-03-27T12:39:58.984Z,19.20
2018-03-27T12:42:26.905Z,20.40
2018-03-27T12:44:54.385Z,18.80
2018-03-27T12:47:21.886Z,21.30
2018-03-27T12:49:49.822Z,20.27
2018-03-27T12:52:17.337Z,18.53
2018-03-27T12:54:44.839Z,17.77
2018-03-27T12:57:12.348Z,17.73
2018-03-27T12:59:40.238Z,17.17
2018-03-27T13:02:07.852Z,17.67
2018-03-27T13:04:35.350Z,16.07
2018-03-27T13:07:03.255Z,19.97
2018-03-27T13:09:30.770Z,19.40
2018-03-27T13:11:58.687Z,19.63
2018-03-27T13:14:26.195Z,19.80
2018-03-27T13:16:54.111Z,20.07
2018-03-27T13:19:21.629Z,18.70
2018-03-27T13:21:49.112Z,19.87
2018-03-27T13:24:17.024Z,17.40
2018-03-27T13:26:44.520Z,19.37
2018-03-27T13:29:12.037Z,18.50
2018-03-27T13:31:39.604Z,18.63
2018-03-27T13:34:07.099Z,19.63
2018-03-27T13:36:34.610Z,19.60
2018-03-27T13:39:02.819Z,20.10
2018-03-27T13:41:30.297Z,20.07
2018-03-27T13:43:57.768Z,20.50
2018-03-27T13:46:25.266Z,21.60
2018-03-27T13:48:52.755Z,20.50
2018-03-27T13:51:20.290Z,22.00
2018-03-27T13:53:48.188Z,20.70
2018-03-27T13:56:15.704Z,22.23
2018-03-27T13:58:43.232Z,22.60
2018-03-27T14:01:10.727Z,22.90
2018-03-27T14:03:38.226Z,22.37
2018-03-27T14:06:05.729Z,24.97
2018-03-27T14:08:33.230Z,25.10
2018-03-27T14:11:00.834Z,23.27
2018-03-27T14:13:28.319Z,22.67
2018-03-27T14:15:55.809Z,23.70
2018-03-27T14:18:23.290Z,22.70
2018-03-27T14:20:51.221Z,22.63
2018-03-27T14:23:18.716Z,24.43
2018-03-27T14:25:46.227Z,25.10
2018-03-27T14:28:13.728Z,24.97
2018-03-27T14:30:41.226Z,25.00
2018-03-27T14:33:08.743Z,24.50
2018-03-27T14:35:36.269Z,25.63
2018-03-27T14:38:03.811Z,23.97
2018-03-27T14:40:31.694Z,23.77
2018-03-27T14:42:59.208Z,25.40
2018-03-27T14:45:26.706Z,25.70
2018-03-27T14:47:54.595Z,25.07
2018-03-27T14:50:22.103Z,25.13
2018-03-27T14:52:49.601Z,26.80
2018-03-27T14:55:17.499Z,26.50
2018-03-27T14:57:44.978Z,25.60
2018-03-27T15:00:12.476Z,26.17
2018-03-27T15:02:39.990Z,26.77
2018-03-27T15:05:07.495Z,25.20
2018-03-27T15:07:35.401Z,23.27
2018-03-27T15:10:03.323Z,24.20
2018-03-27T15:12:30.779Z,21.90
2018-03-27T15:14:58.249Z,23.77
2018-03-27T15:17:25.876Z,24.90
2018-03-27T15:19:53.408Z,18.20
2018-03-27T15:22:21.309Z,19.87
2018-03-27T15:24:48.830Z,21.20
2018-03-27T15:27:16.777Z,19.17
2018-03-27T15:29:44.259Z,21.60
2018-03-27T15:32:11.982Z,20.40
2018-03-27T15:34:39.933Z,19.97
2018-03-27T15:37:07.849Z,20.47
2018-03-27T15:39:35.346Z,19.53
2018-03-27T15:42:02.821Z,19.27
2018-03-27T15:44:30.832Z,18.30
2018-03-27T15:46:58.321Z,20.23
2018-03-27T15:49:25.835Z,18.93
2018-03-27T15:51:53.721Z,19.43
2018-03-27T15:54:21.833Z,19.00
2018-03-27T15:56:49.642Z,19.20
2018-03-27T15:59:17.535Z,19.00
2018-03-27T16:01:45.963Z,17.80
2018-03-27T16:04:15.231Z,18.57
2018-03-27T16:06:43.539Z,19.70
2018-03-27T16:09:11.494Z,19.40
2018-03-27T16:11:39.671Z,19.30
2018-03-27T16:14:07.190Z,17.77
2018-03-27T16:16:34.813Z,20.53
2018-03-27T16:19:02.341Z,20.50
2018-03-27T16:21:30.322Z,19.57
2018-03-27T16:23:57.997Z,18.83
2018-03-27T16:26:25.673Z,19.87
2018-03-27T16:28:53.193Z,22.30
2018-03-27T16:31:21.735Z,20.33
2018-03-27T16:33:49.390Z,20.67
2018-03-27T16:36:18.698Z,20.33
2018-03-27T16:38:46.299Z,20.80
2018-03-27T16:41:13.844Z,21.37
2018-03-27T16:43:41.343Z,21.60
2018-03-27T16:46:09.226Z,21.03
2018-03-27T16:48:37.210Z,22.87
2018-03-27T16:51:04.916Z,23.60
2018-03-27T16:53:32.462Z,22.40
2018-03-27T16:56:00.015Z,21.37
2018-03-27T16:58:27.510Z,22.03
2018-03-27T17:00:55.626Z,22.53
2018-03-27T17:03:23.170Z,21.97
2018-03-27T17:05:50.755Z,21.70
2018-03-27T17:08:18.293Z,22.90
2018-03-27T17:10:45.823Z,22.00
2018-03-27T17:13:18.406Z,23.07
2018-03-27T17:15:46.000Z,23.37
2018-03-27T17:18:14.047Z,22.30
2018-03-27T17:20:41.702Z,21.00
2018-03-27T17:23:09.261Z,22.47
2018-03-27T17:25:36.821Z,22.23
2018-03-27T17:28:04.332Z,22.03
2018-03-27T17:30:31.858Z,24.00
2018-03-27T17:32:59.418Z,23.77
2018-03-27T17:35:26.963Z,21.00
2018-03-27T17:37:54.685Z,22.20
2018-03-27T17:40:22.198Z,23.43
2018-03-27T17:42:49.899Z,21.10
2018-03-27T17:45:17.558Z,22.23
2018-03-27T17:47:45.102Z,24.40
2018-03-27T17:50:13.092Z,21.67
2018-03-27T17:52:40.687Z,23.50
2018-03-27T17:55:08.293Z,23.10
2018-03-27T17:57:36.502Z,23.80
2018-03-27T18:00:04.067Z,22.70
2018-03-27T18:02:31.682Z,25.20
2018-03-27T18:04:59.274Z,22.80
2018-03-27T18:07:27.183Z,23.80
2018-03-27T18:09:54.745Z,25.10
2018-03-27T18:12:22.338Z,25.17
2018-03-27T18:14:50.494Z,24.27
2018-03-27T18:17:18.020Z,24.60
2018-03-27T18:19:45.582Z,25.53
2018-03-27T18:22:13.092Z,26.40
2018-03-27T18:24:40.713Z,25.20
2018-03-27T18:27:08.360Z,23.50
2018-03-27T18:29:36.350Z,22.50
2018-03-27T18:32:04.322Z,22.90
2018-03-27T18:34:31.917Z,22.83
2018-03-27T18:36:59.489Z,23.57
2018-03-27T18:39:27.282Z,23.70
2018-03-27T18:41:54.798Z,24.80
2018-03-27T18:44:22.371Z,22.70
2018-03-27T18:46:49.953Z,23.93
2018-03-27T18:49:17.479Z,23.40
2018-03-27T18:51:45.072Z,23.23
2018-03-27T18:54:12.702Z,24.10
2018-03-27T18:56:40.685Z,22.50
2018-03-27T18:59:09.187Z,25.70
2018-03-27T19:01:36.778Z,25.90
2018-03-27T19:04:04.411Z,24.30
2018-03-27T19:06:32.070Z,25.37
2018-03-27T19:09:01.440Z,26.80
2018-03-27T19:11:29.288Z,26.10
2018-03-27T19:13:58.470Z,24.37
2018-03-27T19:16:26.141Z,25.53
2018-03-27T19:18:53.710Z,25.87
2018-03-27T19:21:21.232Z,25.97
2018-03-27T19:23:49.163Z,27.10
2018-03-27T19:26:16.699Z,26.67
2018-03-27T19:28:44.247Z,25.63
2018-03-27T19:31:11.848Z,26.40
2018-03-27T19:33:39.404Z,25.93
2018-03-27T19:36:07.036Z,25.00
2018-03-27T19:38:34.808Z,26.53
2018-03-27T19:41:02.486Z,25.00
2018-03-27T19:43:30.088Z,24.00
2018-03-27T19:46:00.768Z,22.73
2018-03-27T19:48:28.702Z,23.50
2018-03-27T19:51:00.508Z,22.97
2018-03-27T19:53:28.107Z,23.03
2018-03-27T19:55:55.667Z,23.77
2018-03-27T19:58:23.196Z,22.37
2018-03-27T20:00:51.028Z,21.73
2018-03-27T20:03:19.095Z,22.83
2018-03-27T20:05:46.938Z,22.77
2018-03-27T20:08:14.637Z,23.00
2018-03-27T20:10:42.505Z,24.33
2018-03-27T20:13:10.200Z,21.83
2018-03-27T20:15:41.703Z,23.60
2018-03-27T20:18:05.948Z,24.50
2018-03-27T20:20:33.554Z,24.30
2018-03-27T20:23:01.191Z,26.17
2018-03-27T20:25:28.960Z,24.23
2018-03-27T20:27:56.546Z,23.10
2018-03-27T20:30:24.126Z,25.93
2018-03-27T20:32:51.706Z,23.10
2018-03-27T20:35:19.322Z,23.30
2018-03-27T20:37:47.585Z,23.30
2018-03-27T20:40:15.607Z,21.80
2018-03-27T20:42:43.377Z,20.87
2018-03-27T20:45:10.964Z,20.13
2018-03-27T20:47:39.144Z,21.30
2018-03-27T20:50:06.707Z,20.03
2018-03-27T20:52:34.267Z,21.47
2018-03-27T20:55:01.878Z,23.07
2018-03-27T20:57:29.530Z,19.83
2018-03-27T20:59:57.222Z,23.73
2018-03-27T21:02:24.749Z,20.30
2018-03-27T21:04:52.762Z,19.90
2018-03-27T21:07:20.282Z,21.00
2018-03-27T21:09:48.353Z,21.37
2018-03-27T21:12:15.924Z,22.40
2018-03-27T21:14:44.039Z,20.97
2018-03-27T21:17:11.703Z,21.10
2018-03-27T21:19:39.321Z,21.17
2018-03-27T21:22:06.917Z,19.00
2018-03-27T21:24:34.594Z,21.10
2018-03-27T21:27:02.318Z,19.43
2018-03-27T21:29:29.960Z,22.07
2018-03-27T21:31:57.559Z,23.83
2018-03-27T21:34:25.162Z,24.67
2018-03-27T21:36:52.770Z,22.63
2018-03-27T21:39:20.322Z,26.37
2018-03-27T21:41:47.915Z,26.87
2018-03-27T21:44:15.528Z,24.80
2018-03-27T21:46:44.573Z,27.23
2018-03-27T21:49:12.214Z,27.60
2018-03-27T21:51:39.805Z,25.33
2018-03-27T21:54:08.399Z,24.57
2018-03-27T21:56:35.936Z,25.50
2018-03-27T21:59:03.552Z,26.80
2018-03-27T22:01:31.508Z,23.33
2018-03-27T22:03:59.405Z,22.40
2018-03-27T22:06:27.301Z,24.60
2018-03-27T22:08:55.104Z,23.50
2018-03-27T22:11:22.738Z,24.17
2018-03-27T22:13:50.272Z,22.87
2018-03-27T22:16:18.191Z,24.00
2018-03-27T22:18:45.810Z,23.50
2018-03-27T22:21:13.351Z,23.43
2018-03-27T22:23:40.889Z,23.27
2018-03-27T22:26:08.837Z,23.00
2018-03-27T22:28:36.328Z,22.70
2018-03-27T22:31:03.874Z,22.10
2018-03-27T22:33:31.408Z,22.03
2018-03-27T22:35:58.970Z,21.33
2018-03-27T22:38:26.533Z,21.67
2018-03-27T22:40:54.095Z,20.90
2018-03-27T22:43:21.697Z,20.27
2018-03-27T22:45:50.053Z,17.80
2018-03-27T22:48:17.590Z,18.63
2018-03-27T22:50:45.518Z,18.47
2018-03-27T22:53:13.081Z,17.10
2018-03-27T22:55:40.661Z,18.20
2018-03-27T22:58:08.214Z,18.13
2018-03-27T23:00:36.394Z,19.87
2018-03-27T23:03:04.071Z,17.70
2018-03-27T23:05:31.575Z,18.00
2018-03-27T23:07:59.537Z,17.47
2018-03-27T23:10:27.450Z,18.40
2018-03-27T23:12:55.388Z,16.13
2018-03-27T23:15:23.291Z,18.20
2018-03-27T23:17:50.822Z,18.30
2018-03-27T23:20:18.386Z,17.00
2018-03-27T23:22:46.372Z,17.20
2018-03-27T23:25:13.912Z,17.70
2018-03-27T23:27:41.847Z,17.63
2018-03-27T23:30:09.391Z,19.10
2018-03-27T23:32:37.200Z,15.50
2018-03-27T23:35:04.741Z,16.60
2018-03-27T23:37:32.304Z,17.30
2018-03-27T23:40:00.073Z,16.50
2018-03-27T23:42:27.582Z,16.63
2018-03-27T23:44:55.869Z,16.80
2018-03-27T23:47:23.416Z,15.87
2018-03-27T23:49:51.305Z,16.37
2018-03-27T23:52:19.237Z,14.50
2018-03-27T23:54:46.787Z,14.20
2018-03-27T23:57:14.293Z,13.73
2018-03-27T23:59:41.899Z,14.50
